createdAt,value
2019-03-06T00:03:49.983Z,13.38
2019-03-06T00:08:48.895Z,13.03
2019-03-06T00:11:20.375Z,14.15
2019-03-06T00:14:00.471Z,15.28
2019-03-06T00:16:29.421Z,14.95
2019-03-06T00:21:27.685Z,14.98
2019-03-06T00:23:56.667Z,16.52
2019-03-06T00:26:25.737Z,16.30
2019-03-06T00:28:54.774Z,17.95
2019-03-06T00:31:23.734Z,17.95
2019-03-06T00:33:52.983Z,18.83
2019-03-06T00:36:22.899Z,18.62
2019-03-06T00:38:51.890Z,17.85
2019-03-06T00:41:34.359Z,18.92
2019-03-06T00:51:00.510Z,19.02
2019-03-06T00:56:01.278Z,17.77
2019-03-06T00:58:30.311Z,19.30
2019-03-06T01:04:12.272Z,20.27
2019-03-06T01:09:15.842Z,19.92
2019-03-06T01:11:46.838Z,19.65
2019-03-06T01:14:18.044Z,19.27
2019-03-06T01:16:48.308Z,20.75
2019-03-06T01:19:17.285Z,19.55
2019-03-06T01:21:46.246Z,19.12
2019-03-06T01:24:21.274Z,21.17
2019-03-06T01:26:50.704Z,19.37
2019-03-06T01:29:19.686Z,21.15
2019-03-06T01:31:48.662Z,19.75
2019-03-06T01:34:23.940Z,20.45
2019-03-06T01:36:57.450Z,19.00
2019-03-06T01:39:33.646Z,19.00
2019-03-06T01:42:20.614Z,19.07
2019-03-06T01:44:51.437Z,19.95
2019-03-06T01:47:20.396Z,19.15
2019-03-06T01:49:49.362Z,18.70
2019-03-06T01:52:18.423Z,20.50
2019-03-06T01:54:48.104Z,19.92
2019-03-06T01:57:19.254Z,19.32
2019-03-06T01:59:53.070Z,20.85
2019-03-06T02:02:26.718Z,21.30
2019-03-06T02:04:55.981Z,19.70
2019-03-06T02:07:25.307Z,20.05
2019-03-06T02:12:29.061Z,19.02
2019-03-06T02:14:58.419Z,20.97
2019-03-06T02:17:28.336Z,19.75
2019-03-06T02:19:57.328Z,19.30
2019-03-06T02:22:26.526Z,19.05
2019-03-06T02:24:55.491Z,19.32
2019-03-06T02:27:29.058Z,19.12
2019-03-06T02:30:08.146Z,18.82
2019-03-06T02:32:35.019Z,16.75
2019-03-06T02:35:06.101Z,18.10
2019-03-06T02:37:36.237Z,17.62
2019-03-06T02:40:06.178Z,17.85
2019-03-06T02:42:35.147Z,17.50
2019-03-06T02:45:11.741Z,16.42
2019-03-06T02:47:43.606Z,16.55
2019-03-06T02:50:20.704Z,16.60
2019-03-06T02:52:53.031Z,17.02
2019-03-06T02:55:22.004Z,16.37
2019-03-06T02:58:06.945Z,16.82
2019-03-06T03:00:38.134Z,16.80
2019-03-06T03:03:11.505Z,16.35
2019-03-06T03:05:54.238Z,15.98
2019-03-06T03:08:23.225Z,15.05
2019-03-06T03:10:57.016Z,15.93
2019-03-06T03:13:26.043Z,15.10
2019-03-06T03:15:55.059Z,16.48
2019-03-06T03:18:24.494Z,16.07
2019-03-06T03:20:57.390Z,15.43
2019-03-06T03:23:28.819Z,16.57
2019-03-06T03:25:57.856Z,16.65
2019-03-06T03:28:26.876Z,15.58
2019-03-06T03:31:00.336Z,15.90
2019-03-06T03:33:26.575Z,15.08
2019-03-06T03:35:56.988Z,15.28
2019-03-06T03:38:25.988Z,15.18
2019-03-06T03:40:56.047Z,14.63
2019-03-06T03:45:53.209Z,13.32
2019-03-06T03:50:52.996Z,12.88
2019-03-06T03:53:23.564Z,13.18
2019-03-06T03:55:52.572Z,13.28
2019-03-06T03:58:23.601Z,13.45
2019-03-06T04:00:58.395Z,12.28
2019-03-06T04:03:27.436Z,13.20
2019-03-06T04:05:56.424Z,12.60
2019-03-06T04:08:26.071Z,11.63
2019-03-06T04:11:03.027Z,12.93
2019-03-06T04:13:33.095Z,12.25
2019-03-06T04:19:41.163Z,11.75
2019-03-06T04:22:14.028Z,11.50
2019-03-06T04:24:44.258Z,11.97
2019-03-06T04:27:13.428Z,11.57
2019-03-06T04:29:42.368Z,11.70
2019-03-06T04:32:13.890Z,11.60
2019-03-06T04:34:42.865Z,11.45
2019-03-06T04:37:11.834Z,10.78
2019-03-06T04:39:42.443Z,9.63
2019-03-06T04:42:11.462Z,10.68
2019-03-06T04:44:43.582Z,10.35
2019-03-06T04:47:16.635Z,10.35
2019-03-06T04:49:52.380Z,10.43
2019-03-06T04:52:16.281Z,9.25
2019-03-06T04:54:45.240Z,9.28
2019-03-06T04:57:14.701Z,9.48
2019-03-06T04:59:43.927Z,9.97
2019-03-06T05:02:12.871Z,8.63
2019-03-06T05:04:41.851Z,9.25
2019-03-06T05:07:11.841Z,9.23
2019-03-06T05:09:44.018Z,8.78
2019-03-06T05:12:13.041Z,8.83
2019-03-06T05:14:42.081Z,8.90
2019-03-06T05:17:12.673Z,8.60
2019-03-06T05:19:42.316Z,9.10
2019-03-06T05:22:12.882Z,10.10
2019-03-06T05:24:44.737Z,9.55
2019-03-06T05:27:13.831Z,8.98
2019-03-06T05:29:42.800Z,8.65
2019-03-06T05:32:25.043Z,8.38
2019-03-06T05:34:58.890Z,8.95
2019-03-06T05:37:31.957Z,9.08
2019-03-06T05:40:00.947Z,8.70
2019-03-06T05:42:29.960Z,8.63
2019-03-06T05:44:58.913Z,8.28
2019-03-06T05:47:29.523Z,7.62
2019-03-06T05:50:01.552Z,7.33
2019-03-06T05:52:31.098Z,8.03
2019-03-06T05:55:00.067Z,7.42
2019-03-06T05:57:33.126Z,7.80
2019-03-06T06:00:01.816Z,8.43
2019-03-06T06:02:30.774Z,7.58
2019-03-06T06:04:59.795Z,7.30
2019-03-06T06:07:28.770Z,7.62
2019-03-06T06:09:57.741Z,6.85
2019-03-06T06:12:26.741Z,7.75
2019-03-06T06:14:57.393Z,6.75
2019-03-06T06:17:26.420Z,6.10
2019-03-06T06:19:55.586Z,6.58
2019-03-06T06:22:28.856Z,6.40
2019-03-06T06:24:57.842Z,6.35
2019-03-06T06:27:29.101Z,6.37
2019-03-06T06:29:58.676Z,6.87
2019-03-06T06:32:29.022Z,6.58
2019-03-06T06:34:58.157Z,5.53
2019-03-06T06:37:27.086Z,5.43
2019-03-06T06:39:56.444Z,5.37
2019-03-06T06:42:25.410Z,6.12
2019-03-06T06:44:54.376Z,5.15
2019-03-06T06:47:23.455Z,5.45
2019-03-06T06:49:53.520Z,5.45
2019-03-06T06:52:24.547Z,5.28
2019-03-06T06:54:55.072Z,5.33
2019-03-06T06:57:42.552Z,5.45
2019-03-06T07:00:13.586Z,4.90
2019-03-06T07:02:57.744Z,5.28
2019-03-06T07:05:37.500Z,4.30
2019-03-06T07:08:14.078Z,4.10
2019-03-06T07:11:03.100Z,4.28
2019-03-06T07:13:37.286Z,4.15
2019-03-06T07:16:25.399Z,4.03
2019-03-06T07:19:12.786Z,3.98
2019-03-06T07:21:43.393Z,3.60
2019-03-06T07:24:14.009Z,3.75
2019-03-06T07:27:00.670Z,3.92
2019-03-06T07:29:42.297Z,4.10
2019-03-06T07:32:15.668Z,3.62
2019-03-06T07:35:20.913Z,3.58
2019-03-06T07:37:52.614Z,3.55
2019-03-06T07:40:22.926Z,3.05
2019-03-06T07:42:55.476Z,3.10
2019-03-06T07:45:43.447Z,3.55
2019-03-06T07:48:28.827Z,3.20
2019-03-06T07:51:05.118Z,3.17
2019-03-06T07:53:57.946Z,3.08
2019-03-06T07:56:46.833Z,3.47
2019-03-06T07:59:18.205Z,3.37
2019-03-06T08:01:52.962Z,3.15
2019-03-06T08:04:23.111Z,3.27
2019-03-06T08:09:44.605Z,3.20
2019-03-06T08:12:24.855Z,2.85
2019-03-06T08:15:01.413Z,3.15
2019-03-06T08:17:38.057Z,3.08
2019-03-06T08:20:09.151Z,3.00
2019-03-06T08:22:45.898Z,2.90
2019-03-06T08:25:19.106Z,2.98
2019-03-06T08:27:50.555Z,2.83
2019-03-06T08:30:18.922Z,2.87
2019-03-06T08:32:47.955Z,2.98
2019-03-06T08:35:16.988Z,2.70
2019-03-06T08:37:46.104Z,3.00
2019-03-06T08:40:15.446Z,2.92
2019-03-06T08:42:44.514Z,2.80
2019-03-06T08:45:20.480Z,3.08
2019-03-06T08:47:58.009Z,3.15
2019-03-06T08:50:31.245Z,3.17
2019-03-06T08:53:01.836Z,3.42
2019-03-06T08:55:38.007Z,3.05
2019-03-06T08:58:10.412Z,3.33
2019-03-06T09:00:50.227Z,3.15
2019-03-06T09:03:27.808Z,3.80
2019-03-06T09:06:10.038Z,2.98
2019-03-06T09:08:55.608Z,3.08
2019-03-06T09:11:43.422Z,3.30
2019-03-06T09:14:30.246Z,3.17
2019-03-06T09:17:05.662Z,3.10
2019-03-06T09:19:52.914Z,3.65
2019-03-06T09:22:25.122Z,3.50
2019-03-06T09:24:55.866Z,3.75
2019-03-06T09:27:28.912Z,3.10
2019-03-06T09:30:19.673Z,3.60
2019-03-06T09:33:05.956Z,3.10
2019-03-06T09:35:41.144Z,3.40
2019-03-06T09:38:14.242Z,3.00
2019-03-06T09:40:49.894Z,3.10
2019-03-06T09:43:26.672Z,3.58
2019-03-06T09:46:04.031Z,3.37
2019-03-06T09:48:40.663Z,3.50
2019-03-06T09:51:28.375Z,3.58
2019-03-06T09:54:12.553Z,3.00
2019-03-06T09:56:48.672Z,3.02
2019-03-06T09:59:19.341Z,3.60
2019-03-06T10:01:52.534Z,3.75
2019-03-06T10:04:27.443Z,3.98
2019-03-06T10:07:17.631Z,4.08
2019-03-06T10:12:25.522Z,3.40
2019-03-06T10:15:08.281Z,3.50
2019-03-06T10:17:39.890Z,3.70
2019-03-06T10:20:12.077Z,3.87
2019-03-06T10:22:42.323Z,3.98
2019-03-06T10:25:13.441Z,3.90
2019-03-06T10:27:42.465Z,4.10
2019-03-06T10:30:14.705Z,3.65
2019-03-06T10:32:48.477Z,3.83
2019-03-06T10:35:17.737Z,3.40
2019-03-06T10:37:47.740Z,3.60
2019-03-06T10:40:18.713Z,4.10
2019-03-06T10:42:48.873Z,3.72
2019-03-06T10:45:19.355Z,4.08
2019-03-06T10:47:50.787Z,3.72
2019-03-06T10:50:28.422Z,3.90
2019-03-06T10:52:51.497Z,4.45
2019-03-06T10:55:20.911Z,4.20
2019-03-06T10:57:55.569Z,3.75
2019-03-06T11:00:27.975Z,4.37
2019-03-06T11:02:57.175Z,4.08
2019-03-06T11:05:30.809Z,4.60
2019-03-06T11:08:01.819Z,4.30
2019-03-06T11:10:34.378Z,4.15
2019-03-06T11:13:08.634Z,5.10
2019-03-06T11:15:39.854Z,4.47
2019-03-06T11:18:11.106Z,4.30
2019-03-06T11:20:40.817Z,4.40
2019-03-06T11:23:13.013Z,4.37
2019-03-06T11:25:43.910Z,4.75
2019-03-06T11:28:13.164Z,4.72
2019-03-06T11:30:52.637Z,4.45
2019-03-06T11:33:22.864Z,5.10
2019-03-06T11:35:53.442Z,4.55
2019-03-06T11:38:22.998Z,4.83
2019-03-06T11:40:53.804Z,4.80
2019-03-06T11:43:22.828Z,5.35
2019-03-06T11:45:54.406Z,4.78
2019-03-06T11:48:25.283Z,5.37
2019-03-06T11:50:57.716Z,5.30
2019-03-06T11:53:26.725Z,5.05
2019-03-06T11:55:57.563Z,5.45
2019-03-06T11:58:26.599Z,5.42
2019-03-06T12:00:58.682Z,5.95
2019-03-06T12:03:28.034Z,5.40
2019-03-06T12:06:08.834Z,5.60
2019-03-06T12:08:45.637Z,5.35
2019-03-06T12:11:11.288Z,5.65
2019-03-06T12:13:43.155Z,5.00
2019-03-06T12:16:13.931Z,5.40
2019-03-06T12:18:43.081Z,5.28
2019-03-06T12:21:13.829Z,5.25
2019-03-06T12:23:42.880Z,5.67
2019-03-06T12:26:12.004Z,5.65
2019-03-06T12:28:46.288Z,5.33
2019-03-06T12:31:15.486Z,5.62
2019-03-06T12:33:47.474Z,5.47
2019-03-06T12:36:19.242Z,5.70
2019-03-06T12:38:49.580Z,6.28
2019-03-06T12:41:20.330Z,5.60
2019-03-06T12:43:50.898Z,5.87
2019-03-06T12:46:23.882Z,6.22
2019-03-06T12:48:57.393Z,5.72
2019-03-06T12:51:26.371Z,5.90
2019-03-06T12:54:01.727Z,6.37
2019-03-06T12:56:30.962Z,6.15
2019-03-06T12:59:01.407Z,6.15
2019-03-06T13:01:33.612Z,6.00
2019-03-06T13:04:03.102Z,5.42
2019-03-06T13:06:32.081Z,6.05
2019-03-06T13:09:01.182Z,6.25
2019-03-06T13:11:32.209Z,6.03
2019-03-06T13:14:01.207Z,5.08
2019-03-06T13:16:31.433Z,5.62
2019-03-06T13:19:00.669Z,5.97
2019-03-06T13:21:32.655Z,5.37
2019-03-06T13:24:01.678Z,6.58
2019-03-06T13:26:30.801Z,6.12
2019-03-06T13:28:59.806Z,5.80
2019-03-06T13:31:28.839Z,6.78
2019-03-06T13:33:59.464Z,6.37
2019-03-06T13:36:28.602Z,5.87
2019-03-06T13:39:05.965Z,5.60
2019-03-06T13:41:28.342Z,5.55
2019-03-06T13:43:57.344Z,6.05
2019-03-06T13:46:26.450Z,6.37
2019-03-06T13:48:55.482Z,6.10
2019-03-06T13:51:24.725Z,5.42
2019-03-06T13:53:53.758Z,5.25
2019-03-06T13:56:23.606Z,5.20
2019-03-06T13:58:52.920Z,5.97
2019-03-06T14:01:23.946Z,5.90
2019-03-06T14:03:53.053Z,5.22
2019-03-06T14:06:36.066Z,5.57
2019-03-06T14:09:06.100Z,5.78
2019-03-06T14:11:36.386Z,5.30
2019-03-06T14:14:06.246Z,5.00
2019-03-06T14:16:35.528Z,5.25
2019-03-06T14:19:04.898Z,5.08
2019-03-06T14:21:34.118Z,5.75
2019-03-06T14:24:03.368Z,5.45
2019-03-06T14:26:32.676Z,5.17
2019-03-06T14:29:01.704Z,5.50
2019-03-06T14:31:31.009Z,5.23
2019-03-06T14:34:01.600Z,5.92
2019-03-06T14:36:31.162Z,5.17
2019-03-06T14:39:00.529Z,5.12
2019-03-06T14:41:29.854Z,5.35
2019-03-06T14:43:58.895Z,5.57
2019-03-06T14:46:27.917Z,5.67
2019-03-06T14:48:57.012Z,5.25
2019-03-06T14:51:26.078Z,5.80
2019-03-06T14:53:55.090Z,5.50
2019-03-06T14:56:24.459Z,5.10
2019-03-06T14:58:53.414Z,5.43
2019-03-06T15:01:22.367Z,4.85
2019-03-06T15:03:54.296Z,5.22
2019-03-06T15:06:24.937Z,5.08
2019-03-06T15:08:53.913Z,5.15
2019-03-06T15:11:32.949Z,4.80
2019-03-06T15:13:55.678Z,4.80
2019-03-06T15:16:24.708Z,5.05
2019-03-06T15:18:53.727Z,5.10
2019-03-06T15:21:22.706Z,5.47
2019-03-06T15:23:52.041Z,5.50
2019-03-06T15:26:21.177Z,5.33
2019-03-06T15:28:50.205Z,5.33
2019-03-06T15:31:19.277Z,5.53
2019-03-06T15:33:48.247Z,5.42
2019-03-06T15:36:17.453Z,5.40
2019-03-06T15:38:46.741Z,6.12
2019-03-06T15:41:15.756Z,5.87
2019-03-06T15:43:44.779Z,5.17
2019-03-06T15:46:14.357Z,6.05
2019-03-06T15:48:43.386Z,6.27
2019-03-06T15:51:12.455Z,5.72
2019-03-06T15:53:42.238Z,5.53
2019-03-06T15:56:11.207Z,5.25
2019-03-06T15:58:40.162Z,5.50
2019-03-06T16:01:09.478Z,5.58
2019-03-06T16:03:38.504Z,5.10
2019-03-06T16:06:19.740Z,5.97
2019-03-06T16:08:42.268Z,4.70
2019-03-06T16:11:11.710Z,5.15
2019-03-06T16:13:40.743Z,5.00
2019-03-06T16:16:09.746Z,5.60
2019-03-06T16:18:38.934Z,5.17
2019-03-06T16:21:10.631Z,5.50
2019-03-06T16:23:39.619Z,6.08
2019-03-06T16:26:11.766Z,5.10
2019-03-06T16:28:42.453Z,5.62
2019-03-06T16:31:11.904Z,5.53
2019-03-06T16:33:47.209Z,5.95
2019-03-06T16:36:20.456Z,6.28
2019-03-06T16:38:49.635Z,6.10
2019-03-06T16:41:21.615Z,6.72
2019-03-06T16:43:50.718Z,5.75
2019-03-06T16:46:22.799Z,5.95
2019-03-06T16:48:51.790Z,6.62
2019-03-06T16:51:24.145Z,7.17
2019-03-06T16:53:53.109Z,7.10
2019-03-06T16:56:25.405Z,6.92
2019-03-06T16:58:54.561Z,6.78
2019-03-06T17:01:26.353Z,7.47
2019-03-06T17:03:55.382Z,7.50
2019-03-06T17:06:24.627Z,6.17
2019-03-06T17:08:54.268Z,7.00
2019-03-06T17:11:36.741Z,6.67
2019-03-06T17:14:07.307Z,6.50
2019-03-06T17:16:49.093Z,6.67
2019-03-06T17:19:18.216Z,6.70
2019-03-06T17:21:47.543Z,6.93
2019-03-06T17:24:19.797Z,7.58
2019-03-06T17:26:48.815Z,7.08
2019-03-06T17:29:17.927Z,7.30
2019-03-06T17:31:47.027Z,7.13
2019-03-06T17:34:16.571Z,7.10
2019-03-06T17:36:47.448Z,7.23
2019-03-06T17:39:18.947Z,7.72
2019-03-06T17:41:48.010Z,5.92
2019-03-06T17:44:17.220Z,7.42
2019-03-06T17:46:46.149Z,6.77
2019-03-06T17:49:15.454Z,6.85
2019-03-06T17:52:03.927Z,7.12
2019-03-06T17:54:32.909Z,7.05
2019-03-06T17:57:04.834Z,8.75
2019-03-06T17:59:36.331Z,7.40
2019-03-06T18:02:05.362Z,8.48
2019-03-06T18:04:34.371Z,8.47
2019-03-06T18:07:03.579Z,8.63
2019-03-06T18:09:32.510Z,8.80
2019-03-06T18:12:01.938Z,8.55
2019-03-06T18:14:30.999Z,8.00
2019-03-06T18:17:00.017Z,8.38
2019-03-06T18:19:29.032Z,9.00
2019-03-06T18:21:58.042Z,8.73
2019-03-06T18:24:27.253Z,8.93
2019-03-06T18:27:00.055Z,8.80
2019-03-06T18:29:29.116Z,7.20
2019-03-06T18:31:58.127Z,9.05
2019-03-06T18:34:27.168Z,8.73
2019-03-06T18:37:16.996Z,8.10
2019-03-06T18:39:49.806Z,7.42
2019-03-06T18:42:18.843Z,7.90
2019-03-06T18:44:49.489Z,7.78
2019-03-06T18:47:24.006Z,8.28
2019-03-06T18:49:53.070Z,8.73
2019-03-06T18:52:24.774Z,8.10
2019-03-06T18:54:57.986Z,7.87
2019-03-06T18:57:26.990Z,8.10
2019-03-06T18:59:57.792Z,9.00
2019-03-06T19:02:26.956Z,8.68
2019-03-06T19:04:55.968Z,8.63
2019-03-06T19:07:25.046Z,7.17
2019-03-06T19:09:54.099Z,8.43
2019-03-06T19:12:23.254Z,8.43
2019-03-06T19:14:52.546Z,8.23
2019-03-06T19:17:25.898Z,8.68
2019-03-06T19:19:54.882Z,8.25
2019-03-06T19:22:27.502Z,8.60
2019-03-06T19:24:56.555Z,7.87
2019-03-06T19:27:27.131Z,9.38
2019-03-06T19:29:56.259Z,8.65
2019-03-06T19:32:25.993Z,8.53
2019-03-06T19:34:55.248Z,8.60
2019-03-06T19:37:25.835Z,7.75
2019-03-06T19:39:56.671Z,8.50
2019-03-06T19:42:25.644Z,8.30
2019-03-06T19:44:54.685Z,8.73
2019-03-06T19:47:25.138Z,9.13
2019-03-06T19:49:54.171Z,7.85
2019-03-06T19:52:25.522Z,8.73
2019-03-06T19:54:53.847Z,9.05
2019-03-06T19:57:22.884Z,8.35
2019-03-06T19:59:51.928Z,9.27
2019-03-06T20:02:20.963Z,9.45
2019-03-06T20:04:49.990Z,9.70
2019-03-06T20:07:19.080Z,9.53
2019-03-06T20:09:48.105Z,9.48
2019-03-06T20:12:17.113Z,9.10
2019-03-06T20:14:50.789Z,9.35
2019-03-06T20:17:22.807Z,9.05
2019-03-06T20:19:51.853Z,9.78
2019-03-06T20:22:23.235Z,9.15
2019-03-06T20:24:55.169Z,9.18
2019-03-06T20:27:24.157Z,9.60
2019-03-06T20:29:53.714Z,9.50
2019-03-06T20:32:22.729Z,10.33
2019-03-06T20:34:55.927Z,9.90
2019-03-06T20:37:24.951Z,9.48
2019-03-06T20:39:53.968Z,8.80
2019-03-06T20:42:23.071Z,8.80
2019-03-06T20:44:53.179Z,9.43
2019-03-06T20:47:22.235Z,9.18
2019-03-06T20:49:57.074Z,8.95
2019-03-06T20:52:27.910Z,9.23
2019-03-06T20:54:56.958Z,9.30
2019-03-06T20:57:25.989Z,9.98
2019-03-06T20:59:55.031Z,9.78
2019-03-06T21:02:27.657Z,10.00
2019-03-06T21:04:58.667Z,10.38
2019-03-06T21:07:27.775Z,10.78
2019-03-06T21:09:56.850Z,10.57
2019-03-06T21:12:28.404Z,9.80
2019-03-06T21:14:58.598Z,10.65
2019-03-06T21:17:27.936Z,11.55
2019-03-06T21:19:57.258Z,11.33
2019-03-06T21:22:28.164Z,10.65
2019-03-06T21:24:57.181Z,10.78
2019-03-06T21:27:29.794Z,10.03
2019-03-06T21:29:58.764Z,10.72
2019-03-06T21:32:28.083Z,11.10
2019-03-06T21:34:57.106Z,11.20
2019-03-06T21:37:26.310Z,10.72
2019-03-06T21:39:56.529Z,11.48
2019-03-06T21:42:25.888Z,11.00
2019-03-06T21:44:54.906Z,10.85
2019-03-06T21:47:31.966Z,11.90
2019-03-06T21:50:01.952Z,12.18
2019-03-06T21:52:37.026Z,12.03
2019-03-06T21:55:08.274Z,12.73
2019-03-06T21:57:37.408Z,12.58
2019-03-06T22:00:08.201Z,13.05
2019-03-06T22:02:37.618Z,13.03
2019-03-06T22:05:07.041Z,13.40
2019-03-06T22:07:40.575Z,12.30
2019-03-06T22:10:12.521Z,13.90
2019-03-06T22:12:42.297Z,13.98
2019-03-06T22:15:12.890Z,13.80
2019-03-06T22:17:41.930Z,13.58
2019-03-06T22:20:12.086Z,15.35
2019-03-06T22:22:42.668Z,12.75
2019-03-06T22:25:12.488Z,13.85
2019-03-06T22:27:41.523Z,14.98
2019-03-06T22:30:15.069Z,14.93
2019-03-06T22:32:44.117Z,15.53
2019-03-06T22:35:18.673Z,15.15
2019-03-06T22:37:47.717Z,14.68
2019-03-06T22:40:21.186Z,16.40
2019-03-06T22:42:50.277Z,15.32
2019-03-06T22:45:20.113Z,16.17
2019-03-06T22:47:49.419Z,16.07
2019-03-06T22:50:30.629Z,16.30
2019-03-06T22:53:04.016Z,16.67
2019-03-06T22:55:34.700Z,16.05
2019-03-06T22:58:05.245Z,17.12
2019-03-06T23:00:49.548Z,17.87
2019-03-06T23:03:19.631Z,19.17
2019-03-06T23:05:48.667Z,16.87
2019-03-06T23:08:20.189Z,17.30
2019-03-06T23:10:49.347Z,17.60
2019-03-06T23:13:21.371Z,18.23
2019-03-06T23:15:51.956Z,18.92
2019-03-06T23:18:20.999Z,18.77
2019-03-06T23:20:50.005Z,18.27
2019-03-06T23:26:16.849Z,17.25
2019-03-06T23:28:48.741Z,18.65
2019-03-06T23:31:17.771Z,16.48
2019-03-06T23:33:46.842Z,17.35
2019-03-06T23:36:17.769Z,15.93
2019-03-06T23:38:49.017Z,16.02
2019-03-06T23:41:21.296Z,14.65
2019-03-06T23:43:50.305Z,14.58
2019-03-06T23:46:19.408Z,14.43
2019-03-06T23:48:48.762Z,14.90
2019-03-06T23:51:19.412Z,14.40
2019-03-06T23:53:53.087Z,14.55
2019-03-06T23:56:22.410Z,13.95
2019-03-06T23:58:52.459Z,12.82
